createdAt,value
2022-10-21T00:00:10.027Z,94.43
2022-10-21T00:01:34.943Z,94.09
2022-10-21T00:02:37.047Z,94.28
2022-10-21T00:03:40.045Z,94.24
2022-10-21T00:04:42.253Z,94.10
2022-10-21T00:05:44.025Z,94.33
2022-10-21T00:06:46.975Z,94.27
2022-10-21T00:07:48.619Z,94.21
2022-10-21T00:08:50.467Z,94.16
2022-10-21T00:09:52.141Z,94.26
2022-10-21T00:10:56.053Z,94.30
2022-10-21T00:11:57.855Z,94.19
2022-10-21T00:12:59.537Z,94.38
2022-10-21T00:14:01.171Z,94.30
2022-10-21T00:15:05.867Z,94.38
2022-10-21T00:16:14.918Z,94.28
2022-10-21T00:17:16.590Z,94.20
2022-10-21T00:18:18.235Z,94.05
2022-10-21T00:19:19.867Z,94.22
2022-10-21T00:21:28.149Z,94.46
2022-10-21T00:22:29.799Z,94.46
2022-10-21T00:23:31.537Z,94.27
2022-10-21T00:24:33.392Z,94.33
2022-10-21T00:25:34.999Z,94.56
2022-10-21T00:26:38.464Z,94.64
2022-10-21T00:27:40.608Z,94.79
2022-10-21T00:28:42.710Z,94.64
2022-10-21T00:29:44.381Z,94.85
2022-10-21T00:30:46.680Z,94.74
2022-10-21T00:31:48.395Z,94.81
2022-10-21T00:32:50.201Z,94.93
2022-10-21T00:33:52.623Z,94.79
2022-10-21T00:34:54.246Z,94.90
2022-10-21T00:35:58.983Z,94.85
2022-10-21T00:37:00.881Z,95.02
2022-10-21T00:38:02.540Z,95.14
2022-10-21T00:39:04.232Z,95.07
2022-10-21T00:40:06.832Z,95.19
2022-10-21T00:41:08.642Z,95.09
2022-10-21T00:42:18.127Z,95.13
2022-10-21T00:43:20.053Z,95.13
2022-10-21T00:44:21.717Z,95.41
2022-10-21T00:45:27.999Z,95.42
2022-10-21T00:46:39.936Z,95.42
2022-10-21T00:47:49.428Z,95.45
2022-10-21T00:48:59.405Z,95.50
2022-10-21T00:50:04.575Z,95.58
2022-10-21T00:51:14.644Z,95.76
2022-10-21T00:52:22.306Z,95.77
2022-10-21T00:53:25.847Z,95.74
2022-10-21T00:54:31.354Z,95.76
2022-10-21T00:55:37.330Z,95.67
2022-10-21T00:56:44.527Z,95.88
2022-10-21T00:57:46.632Z,95.89
2022-10-21T00:58:49.135Z,95.86
2022-10-21T00:59:57.795Z,95.88
2022-10-21T01:01:02.596Z,96.13
2022-10-21T01:02:05.551Z,96.21
2022-10-21T01:03:07.359Z,96.12
2022-10-21T01:04:09.035Z,96.21
2022-10-21T01:05:12.782Z,96.22
2022-10-21T01:06:16.903Z,96.24
2022-10-21T01:07:18.762Z,96.24
2022-10-21T01:08:20.874Z,96.48
2022-10-21T01:09:23.906Z,96.34
2022-10-21T01:10:25.629Z,96.59
2022-10-21T01:11:30.226Z,96.55
2022-10-21T01:12:50.117Z,96.59
2022-10-21T01:14:06.362Z,96.84
2022-10-21T01:15:25.397Z,96.72
2022-10-21T01:16:48.522Z,96.81
2022-10-21T01:18:11.545Z,96.69
2022-10-21T01:19:54.294Z,96.92
2022-10-21T01:21:08.426Z,97.14
2022-10-21T01:22:15.724Z,97.15
2022-10-21T01:23:51.095Z,97.05
2022-10-21T01:25:15.758Z,97.32
2022-10-21T01:26:51.346Z,97.26
2022-10-21T01:28:18.759Z,97.33
2022-10-21T01:30:06.231Z,97.46
2022-10-21T01:31:33.085Z,97.46
2022-10-21T01:32:52.918Z,97.46
2022-10-21T01:34:09.528Z,97.20
2022-10-21T01:35:16.926Z,97.50
2022-10-21T01:36:42.091Z,97.22
2022-10-21T01:38:02.926Z,97.26
2022-10-21T01:39:29.079Z,97.26
2022-10-21T01:40:53.588Z,97.40
2022-10-21T01:42:01.405Z,97.13
2022-10-21T01:43:22.606Z,97.37
2022-10-21T01:45:05.209Z,97.20
2022-10-21T01:46:15.347Z,97.27
2022-10-21T01:47:29.044Z,97.30
2022-10-21T01:48:41.857Z,97.56
2022-10-21T01:49:56.215Z,97.53
2022-10-21T01:51:05.700Z,97.63
2022-10-21T01:52:08.705Z,97.79
2022-10-21T01:53:15.173Z,97.72
2022-10-21T01:54:25.319Z,97.66
2022-10-21T01:55:32.360Z,97.55
2022-10-21T01:56:37.425Z,97.70
2022-10-21T01:57:49.292Z,97.63
2022-10-21T01:58:53.395Z,97.81
2022-10-21T02:00:00.133Z,97.87
2022-10-21T02:01:06.539Z,97.86
2022-10-21T02:02:10.958Z,97.98
2022-10-21T02:03:19.601Z,98.17
2022-10-21T02:04:23.716Z,97.97
2022-10-21T02:05:32.169Z,98.10
2022-10-21T02:06:34.630Z,97.94
2022-10-21T02:07:36.656Z,98.06
2022-10-21T02:08:38.790Z,98.37
2022-10-21T02:09:40.462Z,98.32
2022-10-21T02:10:47.908Z,98.32
2022-10-21T02:11:55.034Z,98.39
2022-10-21T02:13:01.159Z,98.19
2022-10-21T02:14:15.413Z,98.37
2022-10-21T02:15:20.036Z,98.46
2022-10-21T02:16:28.023Z,98.57
2022-10-21T02:17:30.001Z,98.63
2022-10-21T02:18:31.658Z,98.60
2022-10-21T02:19:33.472Z,98.55
2022-10-21T02:20:42.192Z,98.57
2022-10-21T02:21:47.457Z,98.69
2022-10-21T02:22:50.235Z,98.42
2022-10-21T02:23:55.528Z,98.33
2022-10-21T02:25:22.031Z,98.38
2022-10-21T02:26:27.930Z,98.30
2022-10-21T02:27:29.635Z,98.21
2022-10-21T02:28:33.400Z,98.24
2022-10-21T02:29:42.821Z,98.34
2022-10-21T02:30:55.010Z,98.18
2022-10-21T02:32:18.713Z,98.05
2022-10-21T02:33:34.416Z,98.25
2022-10-21T02:34:57.736Z,98.48
2022-10-21T02:36:37.931Z,98.45
2022-10-21T02:38:00.560Z,98.50
2022-10-21T02:39:12.273Z,98.27
2022-10-21T02:40:32.659Z,98.48
2022-10-21T02:41:38.896Z,98.56
2022-10-21T02:42:53.974Z,98.45
2022-10-21T02:44:01.426Z,98.54
2022-10-21T02:45:04.413Z,98.79
2022-10-21T02:46:09.711Z,98.74
2022-10-21T02:48:17.951Z,98.65
2022-10-21T02:49:19.648Z,98.67
2022-10-21T02:50:21.443Z,98.80
2022-10-21T02:51:23.102Z,98.68
2022-10-21T02:52:24.695Z,99.01
2022-10-21T02:53:26.451Z,98.85
2022-10-21T02:54:28.069Z,98.91
2022-10-21T02:55:30.076Z,98.97
2022-10-21T02:56:31.849Z,98.91
2022-10-21T02:57:33.541Z,99.10
2022-10-21T02:58:35.413Z,99.04
2022-10-21T02:59:37.048Z,99.08
2022-10-21T03:00:38.757Z,99.15
2022-10-21T03:01:40.446Z,99.15
2022-10-21T03:02:42.212Z,99.18
2022-10-21T03:03:43.896Z,99.30
2022-10-21T03:04:45.532Z,99.30
2022-10-21T03:05:47.488Z,99.40
2022-10-21T03:06:49.088Z,99.22
2022-10-21T03:07:50.692Z,99.51
2022-10-21T03:08:52.642Z,99.57
2022-10-21T03:09:54.328Z,99.34
2022-10-21T03:10:56.011Z,99.29
2022-10-21T03:11:57.715Z,99.19
2022-10-21T03:12:59.330Z,99.63
2022-10-21T03:14:00.976Z,99.53
2022-10-21T03:15:04.076Z,99.44
2022-10-21T03:16:06.150Z,99.58
2022-10-21T03:17:07.788Z,99.66
2022-10-21T03:18:09.449Z,99.79
2022-10-21T03:19:11.296Z,99.76
2022-10-21T03:20:13.096Z,99.70
2022-10-21T03:21:14.723Z,99.88
2022-10-21T03:22:16.356Z,99.93
2022-10-21T03:23:19.505Z,99.88
2022-10-21T03:24:28.428Z,99.81
2022-10-21T03:25:35.084Z,99.88
2022-10-21T03:26:37.292Z,99.84
2022-10-21T03:27:39.781Z,99.81
2022-10-21T03:28:41.447Z,99.90
2022-10-21T03:29:43.125Z,99.89
2022-10-21T03:30:44.835Z,99.89
2022-10-21T03:31:46.447Z,99.93
2022-10-21T03:32:48.087Z,99.82
2022-10-21T03:33:49.720Z,99.73
2022-10-21T03:34:51.517Z,99.83
2022-10-21T03:35:53.209Z,99.75
2022-10-21T03:36:54.868Z,99.66
2022-10-21T03:38:59.098Z,99.75
2022-10-21T03:40:00.843Z,99.64
2022-10-21T03:41:02.550Z,99.81
2022-10-21T03:42:04.231Z,99.93
2022-10-21T03:43:05.953Z,99.88
2022-10-21T03:44:07.741Z,99.72
2022-10-21T03:45:10.015Z,99.94
2022-10-21T03:46:11.640Z,99.77
2022-10-21T03:47:13.334Z,99.71
2022-10-21T03:48:14.954Z,99.73
2022-10-21T03:49:21.089Z,99.76
2022-10-21T03:50:26.595Z,99.87
2022-10-21T03:51:28.545Z,99.73
2022-10-21T03:52:30.204Z,99.90
2022-10-21T03:53:42.829Z,99.87
2022-10-21T03:54:45.102Z,99.77
2022-10-21T03:55:46.812Z,99.72
2022-10-21T03:56:48.443Z,99.65
2022-10-21T03:57:50.084Z,99.85
2022-10-21T03:58:55.110Z,99.96
2022-10-21T04:00:00.188Z,99.94
2022-10-21T04:01:02.094Z,99.91
2022-10-21T04:02:04.009Z,99.97
2022-10-21T04:03:05.687Z,100.00
2022-10-21T04:04:07.402Z,100.00
2022-10-21T04:05:10.442Z,99.83
2022-10-21T04:06:12.295Z,99.82
2022-10-21T04:07:13.928Z,99.86
2022-10-21T04:08:15.600Z,99.97
2022-10-21T04:09:17.549Z,100.00
2022-10-21T04:10:19.331Z,99.99
2022-10-21T04:11:21.135Z,100.00
2022-10-21T04:12:23.029Z,99.96
2022-10-21T04:13:24.728Z,100.00
2022-10-21T04:14:26.371Z,100.00
2022-10-21T04:15:28.068Z,100.00
2022-10-21T04:16:30.048Z,100.00
2022-10-21T04:17:31.720Z,100.00
2022-10-21T04:18:34.344Z,100.00
2022-10-21T04:19:36.008Z,100.00
2022-10-21T04:20:37.668Z,100.00
2022-10-21T04:21:39.397Z,100.00
2022-10-21T04:22:41.186Z,100.00
2022-10-21T04:23:43.402Z,100.00
2022-10-21T04:24:45.069Z,100.00
2022-10-21T04:25:48.144Z,100.00
2022-10-21T04:26:49.839Z,100.00
2022-10-21T04:27:51.479Z,100.00
2022-10-21T04:28:53.092Z,100.00
2022-10-21T04:29:54.699Z,100.00
2022-10-21T04:30:56.511Z,100.00
2022-10-21T04:31:58.249Z,100.00
2022-10-21T04:33:00.046Z,100.00
2022-10-21T04:34:01.813Z,100.00
2022-10-21T04:35:03.666Z,100.00
2022-10-21T04:36:05.806Z,100.00
2022-10-21T04:37:07.531Z,100.00
2022-10-21T04:38:09.144Z,100.00
2022-10-21T04:39:10.894Z,100.00
2022-10-21T04:40:12.606Z,100.00
2022-10-21T04:41:14.244Z,100.00
2022-10-21T04:42:15.948Z,100.00
2022-10-21T04:43:17.634Z,99.99
2022-10-21T04:44:19.255Z,99.98
2022-10-21T04:45:20.874Z,99.99
2022-10-21T04:46:22.512Z,99.98
2022-10-21T04:47:24.208Z,99.96
2022-10-21T04:48:25.834Z,99.97
2022-10-21T04:49:27.472Z,99.97
2022-10-21T04:50:29.201Z,100.00
2022-10-21T04:51:35.627Z,100.00
2022-10-21T04:52:39.080Z,100.00
2022-10-21T04:53:40.946Z,99.98
2022-10-21T04:54:42.606Z,100.00
2022-10-21T04:55:44.826Z,100.00
2022-10-21T04:56:46.685Z,100.00
2022-10-21T04:57:48.356Z,100.00
2022-10-21T04:58:49.983Z,100.00
2022-10-21T04:59:51.663Z,100.00
2022-10-21T05:00:53.381Z,100.00
2022-10-21T05:01:55.573Z,100.00
2022-10-21T05:02:57.473Z,100.00
2022-10-21T05:03:59.265Z,100.00
2022-10-21T05:05:00.930Z,100.00
2022-10-21T05:06:02.662Z,100.00
2022-10-21T05:07:04.379Z,100.00
2022-10-21T05:08:11.387Z,100.00
2022-10-21T05:09:13.711Z,100.00
2022-10-21T05:10:15.772Z,100.00
2022-10-21T05:11:17.499Z,100.00
2022-10-21T05:12:19.228Z,100.00
2022-10-21T05:13:20.932Z,100.00
2022-10-21T05:14:22.951Z,100.00
2022-10-21T05:15:26.255Z,100.00
2022-10-21T05:16:27.896Z,100.00
2022-10-21T05:17:29.514Z,100.00
2022-10-21T05:18:31.874Z,100.00
2022-10-21T05:19:33.521Z,100.00
2022-10-21T05:20:35.154Z,100.00
2022-10-21T05:22:43.460Z,100.00
2022-10-21T05:23:45.155Z,100.00
2022-10-21T05:24:46.789Z,100.00
2022-10-21T05:25:51.645Z,100.00
2022-10-21T05:26:53.317Z,100.00
2022-10-21T05:27:54.949Z,100.00
2022-10-21T05:28:58.099Z,100.00
2022-10-21T05:29:59.990Z,100.00
2022-10-21T05:31:01.634Z,100.00
2022-10-21T05:32:03.473Z,100.00
2022-10-21T05:33:05.152Z,100.00
2022-10-21T05:34:06.824Z,100.00
2022-10-21T05:35:08.679Z,100.00
2022-10-21T05:36:10.337Z,100.00
2022-10-21T05:37:11.977Z,100.00
2022-10-21T05:38:13.605Z,100.00
2022-10-21T05:39:15.746Z,100.00
2022-10-21T05:40:18.485Z,100.00
2022-10-21T05:41:20.209Z,100.00
2022-10-21T05:42:21.851Z,100.00
2022-10-21T05:43:24.410Z,100.00
2022-10-21T05:44:26.105Z,100.00
2022-10-21T05:45:28.157Z,100.00
2022-10-21T05:46:29.856Z,100.00
2022-10-21T05:47:31.508Z,100.00
2022-10-21T05:48:33.272Z,100.00
2022-10-21T05:49:35.076Z,100.00
2022-10-21T05:50:36.742Z,100.00
2022-10-21T05:51:38.406Z,100.00
2022-10-21T05:52:40.664Z,100.00
2022-10-21T05:53:42.677Z,100.00
2022-10-21T05:54:44.327Z,100.00
2022-10-21T05:55:45.977Z,100.00
2022-10-21T05:56:48.193Z,100.00
2022-10-21T05:58:51.597Z,100.00
2022-10-21T05:59:53.650Z,100.00
2022-10-21T06:00:55.681Z,100.00
2022-10-21T06:01:57.439Z,100.00
2022-10-21T06:02:59.230Z,100.00
2022-10-21T06:04:00.951Z,100.00
2022-10-21T06:05:03.072Z,100.00
2022-10-21T06:06:07.591Z,100.00
2022-10-21T06:07:09.362Z,100.00
2022-10-21T06:08:11.015Z,100.00
2022-10-21T06:09:12.895Z,100.00
2022-10-21T06:10:16.612Z,100.00
2022-10-21T06:11:20.044Z,100.00
2022-10-21T06:12:21.832Z,100.00
2022-10-21T06:13:23.468Z,100.00
2022-10-21T06:14:26.336Z,100.00
2022-10-21T06:15:27.998Z,99.99
2022-10-21T06:16:29.663Z,99.92
2022-10-21T06:17:31.528Z,99.84
2022-10-21T06:18:33.461Z,99.89
2022-10-21T06:19:35.120Z,99.64
2022-10-21T06:20:37.745Z,99.46
2022-10-21T06:21:39.394Z,99.26
2022-10-21T06:22:41.015Z,99.16
2022-10-21T06:23:42.726Z,99.19
2022-10-21T06:24:44.528Z,99.10
2022-10-21T06:26:07.035Z,99.11
2022-10-21T06:27:08.718Z,98.99
2022-10-21T06:28:10.375Z,99.28
2022-10-21T06:29:12.129Z,99.26
2022-10-21T06:30:13.753Z,99.20
2022-10-21T06:31:18.749Z,99.27
2022-10-21T06:32:20.359Z,98.98
2022-10-21T06:33:26.168Z,98.90
2022-10-21T06:34:29.028Z,98.67
2022-10-21T06:35:30.676Z,98.64
2022-10-21T06:36:32.451Z,98.77
2022-10-21T06:37:34.301Z,98.46
2022-10-21T06:38:37.217Z,98.48
2022-10-21T06:39:38.866Z,98.54
2022-10-21T06:40:40.820Z,98.48
2022-10-21T06:41:42.467Z,98.51
2022-10-21T06:42:50.867Z,98.37
2022-10-21T06:43:52.526Z,98.46
2022-10-21T06:44:56.630Z,98.23
2022-10-21T06:46:03.472Z,97.90
2022-10-21T06:47:05.189Z,97.68
2022-10-21T06:48:07.051Z,97.44
2022-10-21T06:49:08.672Z,97.33
2022-10-21T06:50:10.419Z,97.34
2022-10-21T06:51:19.394Z,97.22
2022-10-21T06:52:21.770Z,97.22
2022-10-21T06:53:23.413Z,97.01
2022-10-21T06:54:25.120Z,97.09
2022-10-21T06:55:26.873Z,96.78
2022-10-21T06:56:28.950Z,96.82
2022-10-21T06:57:30.597Z,96.50
2022-10-21T06:58:32.649Z,96.27
2022-10-21T06:59:34.336Z,96.32
2022-10-21T07:00:37.296Z,96.18
2022-10-21T07:01:59.079Z,96.30
2022-10-21T07:03:00.884Z,96.04
2022-10-21T07:04:06.003Z,95.86
2022-10-21T07:05:08.783Z,95.84
2022-10-21T07:06:10.446Z,95.82
2022-10-21T07:07:12.880Z,95.86
2022-10-21T07:08:14.558Z,95.75
2022-10-21T07:09:16.855Z,96.16
2022-10-21T07:10:18.702Z,96.06
2022-10-21T07:11:20.509Z,96.12
2022-10-21T07:12:22.169Z,96.13
2022-10-21T07:13:25.945Z,96.26
2022-10-21T07:14:28.134Z,96.40
2022-10-21T07:15:29.914Z,95.99
2022-10-21T07:16:36.687Z,95.95
2022-10-21T07:17:38.992Z,95.96
2022-10-21T07:18:42.649Z,95.83
2022-10-21T07:19:44.670Z,95.62
2022-10-21T07:20:46.294Z,95.64
2022-10-21T07:21:48.007Z,95.67
2022-10-21T07:22:49.649Z,95.93
2022-10-21T07:23:54.035Z,95.72
2022-10-21T07:24:57.134Z,95.45
2022-10-21T07:25:59.487Z,95.45
2022-10-21T07:27:01.954Z,95.10
2022-10-21T07:28:03.601Z,95.14
2022-10-21T07:29:06.067Z,95.03
2022-10-21T07:30:08.305Z,94.97
2022-10-21T07:31:09.987Z,94.95
2022-10-21T07:32:11.728Z,94.97
2022-10-21T07:33:13.649Z,94.76
2022-10-21T07:34:15.549Z,94.64
2022-10-21T07:35:17.306Z,94.81
2022-10-21T07:36:26.625Z,94.81
2022-10-21T07:37:28.303Z,94.96
2022-10-21T07:38:29.982Z,95.06
2022-10-21T07:39:31.876Z,95.25
2022-10-21T07:40:39.166Z,94.99
2022-10-21T07:41:49.363Z,94.46
2022-10-21T07:42:51.312Z,94.07
2022-10-21T07:43:53.913Z,93.94
2022-10-21T07:45:01.110Z,93.71
2022-10-21T07:46:06.025Z,93.46
2022-10-21T07:47:08.762Z,93.13
2022-10-21T07:48:10.440Z,92.48
2022-10-21T07:49:13.812Z,92.59
2022-10-21T07:50:16.798Z,92.51
2022-10-21T07:51:23.708Z,92.52
2022-10-21T07:52:27.749Z,92.23
2022-10-21T07:53:29.407Z,91.83
2022-10-21T07:54:31.063Z,91.85
2022-10-21T07:55:32.777Z,91.77
2022-10-21T07:56:42.240Z,91.60
2022-10-21T07:57:44.841Z,91.82
2022-10-21T07:58:49.550Z,91.84
2022-10-21T07:59:51.155Z,91.81
2022-10-21T08:00:52.784Z,91.54
2022-10-21T08:01:54.661Z,91.44
2022-10-21T08:02:57.105Z,91.02
2022-10-21T08:03:58.805Z,90.97
2022-10-21T08:05:00.476Z,91.13
2022-10-21T08:06:03.152Z,91.22
2022-10-21T08:07:04.815Z,90.91
2022-10-21T08:08:06.501Z,90.99
2022-10-21T08:09:08.582Z,91.10
2022-10-21T08:10:10.669Z,91.11
2022-10-21T08:11:19.814Z,90.80
2022-10-21T08:12:21.501Z,91.09
2022-10-21T08:13:23.654Z,91.20
2022-10-21T08:14:25.340Z,91.45
2022-10-21T08:15:27.009Z,91.35
2022-10-21T08:16:28.685Z,91.32
2022-10-21T08:17:30.360Z,91.13
2022-10-21T08:18:33.224Z,91.00
2022-10-21T08:19:34.879Z,90.84
2022-10-21T08:20:44.483Z,90.82
2022-10-21T08:21:46.171Z,90.79
2022-10-21T08:22:47.806Z,90.59
2022-10-21T08:23:49.531Z,90.14
2022-10-21T08:24:51.329Z,90.23
2022-10-21T08:25:56.066Z,90.45
2022-10-21T08:26:57.809Z,90.17
2022-10-21T08:27:59.430Z,89.87
2022-10-21T08:29:03.966Z,89.86
2022-10-21T08:30:06.178Z,89.84
2022-10-21T08:31:11.369Z,89.95
2022-10-21T08:32:13.046Z,90.03
2022-10-21T08:33:15.876Z,89.90
2022-10-21T08:34:18.107Z,89.62
2022-10-21T08:35:19.775Z,89.62
2022-10-21T08:36:25.105Z,89.52
2022-10-21T08:37:26.857Z,89.72
2022-10-21T08:38:28.497Z,89.75
2022-10-21T08:39:30.294Z,89.77
2022-10-21T08:40:41.752Z,89.52
2022-10-21T08:41:53.307Z,89.11
2022-10-21T08:42:55.094Z,88.66
2022-10-21T08:43:59.008Z,88.38
2022-10-21T08:45:07.232Z,87.99
2022-10-21T08:46:18.982Z,87.98
2022-10-21T08:47:45.717Z,87.82
2022-10-21T08:49:03.948Z,88.31
2022-10-21T08:50:13.706Z,87.72
2022-10-21T08:51:33.212Z,87.31
2022-10-21T08:52:50.175Z,86.20
2022-10-21T08:53:58.431Z,86.33
2022-10-21T08:55:06.632Z,86.19
2022-10-21T08:56:18.697Z,85.69
2022-10-21T08:57:22.162Z,85.46
2022-10-21T08:58:24.925Z,84.81
2022-10-21T08:59:26.976Z,84.48
2022-10-21T09:00:45.724Z,84.89
2022-10-21T09:02:11.977Z,84.26
2022-10-21T09:03:58.599Z,83.87
2022-10-21T09:05:09.309Z,83.66
2022-10-21T09:06:24.840Z,83.85
2022-10-21T09:07:54.302Z,82.86
2022-10-21T09:09:04.285Z,82.30
2022-10-21T09:10:39.622Z,82.25
2022-10-21T09:12:00.239Z,82.21
2022-10-21T09:13:13.114Z,82.69
2022-10-21T09:15:00.076Z,82.29
2022-10-21T09:16:19.411Z,82.33
2022-10-21T09:17:50.306Z,82.50
2022-10-21T09:19:12.106Z,82.33
2022-10-21T09:20:33.955Z,82.26
2022-10-21T09:22:10.881Z,82.19
2022-10-21T09:23:53.707Z,82.02
2022-10-21T09:25:19.505Z,82.57
2022-10-21T09:26:38.779Z,82.36
2022-10-21T09:27:55.037Z,82.16
2022-10-21T09:29:23.072Z,81.52
2022-10-21T09:30:25.604Z,81.63
2022-10-21T09:31:29.346Z,81.80
2022-10-21T09:32:40.522Z,81.76
2022-10-21T09:33:45.998Z,81.84
2022-10-21T09:35:06.623Z,82.01
2022-10-21T09:36:19.767Z,81.56
2022-10-21T09:37:38.393Z,81.66
2022-10-21T09:39:09.146Z,81.61
2022-10-21T09:40:26.837Z,82.11
2022-10-21T09:41:41.520Z,82.40
2022-10-21T09:42:48.357Z,82.16
2022-10-21T09:43:50.846Z,82.21
2022-10-21T09:44:53.440Z,82.08
2022-10-21T09:45:56.911Z,82.24
2022-10-21T09:46:58.564Z,82.31
2022-10-21T09:48:06.453Z,81.95
2022-10-21T09:50:02.106Z,82.04
2022-10-21T09:50:58.328Z,82.34
2022-10-21T09:52:05.621Z,82.05
2022-10-21T09:53:26.658Z,82.04
2022-10-21T09:54:35.362Z,81.90
2022-10-21T09:55:39.838Z,81.80
2022-10-21T09:56:50.086Z,81.35
2022-10-21T09:57:58.207Z,81.64
2022-10-21T09:59:12.333Z,81.44
2022-10-21T10:00:14.500Z,81.38
2022-10-21T10:01:21.427Z,81.41
2022-10-21T10:02:36.024Z,81.36
2022-10-21T10:03:45.684Z,81.30
2022-10-21T10:04:47.367Z,80.82
2022-10-21T10:05:49.390Z,80.80
2022-10-21T10:06:52.625Z,80.93
2022-10-21T10:07:54.281Z,80.53
2022-10-21T10:09:08.367Z,80.70
2022-10-21T10:10:33.372Z,81.35
2022-10-21T10:11:50.005Z,81.11
2022-10-21T10:12:59.571Z,80.51
2022-10-21T10:14:25.904Z,80.14
2022-10-21T10:15:36.618Z,80.28
2022-10-21T10:16:38.328Z,80.57
2022-10-21T10:17:40.202Z,80.46
2022-10-21T10:18:43.943Z,80.40
2022-10-21T10:20:05.752Z,80.19
2022-10-21T10:21:15.169Z,80.02
2022-10-21T10:22:17.101Z,80.64
2022-10-21T10:23:19.441Z,80.49
2022-10-21T10:24:22.107Z,80.10
2022-10-21T10:25:28.949Z,80.24
2022-10-21T10:26:38.384Z,79.76
2022-10-21T10:27:53.839Z,79.26
2022-10-21T10:29:02.837Z,78.73
2022-10-21T10:30:06.270Z,78.98
2022-10-21T10:31:08.470Z,79.16
2022-10-21T10:32:16.367Z,79.02
2022-10-21T10:33:24.896Z,78.79
2022-10-21T10:34:37.061Z,78.71
2022-10-21T10:35:47.532Z,78.75
2022-10-21T10:36:59.073Z,78.73
2022-10-21T10:38:02.641Z,78.70
2022-10-21T10:39:18.936Z,78.67
2022-10-21T10:40:26.019Z,78.42
2022-10-21T10:41:36.897Z,78.21
2022-10-21T10:42:46.560Z,78.15
2022-10-21T10:43:53.326Z,77.97
2022-10-21T10:45:01.757Z,77.31
2022-10-21T10:46:10.255Z,77.01
2022-10-21T10:47:25.570Z,76.67
2022-10-21T10:48:50.649Z,76.78
2022-10-21T10:49:52.575Z,76.91
2022-10-21T10:50:54.334Z,76.50
2022-10-21T10:52:28.416Z,76.35
2022-10-21T10:53:35.608Z,76.05
2022-10-21T10:54:42.394Z,76.23
2022-10-21T10:57:00.376Z,75.62
2022-10-21T10:58:12.691Z,75.58
2022-10-21T10:59:34.554Z,75.84
2022-10-21T11:00:44.935Z,75.63
2022-10-21T11:02:00.439Z,75.63
2022-10-21T11:03:08.104Z,75.23
2022-10-21T11:04:32.149Z,75.67
2022-10-21T11:05:46.490Z,75.48
2022-10-21T11:06:56.054Z,75.96
2022-10-21T11:08:04.551Z,76.15
2022-10-21T11:09:08.357Z,76.25
2022-10-21T11:10:42.346Z,76.03
2022-10-21T11:11:48.402Z,75.95
2022-10-21T11:12:50.349Z,75.82
2022-10-21T11:13:53.487Z,75.67
2022-10-21T11:14:58.536Z,75.82
2022-10-21T11:16:26.458Z,75.60
2022-10-21T11:17:41.094Z,75.59
2022-10-21T11:19:11.669Z,75.78
2022-10-21T11:20:32.077Z,75.72
2022-10-21T11:21:53.105Z,75.01
2022-10-21T11:23:16.073Z,74.86
2022-10-21T11:24:42.551Z,74.28
2022-10-21T11:25:55.680Z,74.20
2022-10-21T11:27:29.307Z,73.91
2022-10-21T11:28:51.932Z,74.12
2022-10-21T11:30:08.811Z,73.96
2022-10-21T11:31:13.143Z,72.45
2022-10-21T11:32:36.106Z,72.40
2022-10-21T11:33:52.581Z,71.73
2022-10-21T11:35:01.229Z,71.32
2022-10-21T11:36:15.538Z,71.46
2022-10-21T11:37:50.883Z,71.12
2022-10-21T11:39:29.397Z,70.69
2022-10-21T11:40:41.803Z,69.83
2022-10-21T11:42:00.367Z,70.23
2022-10-21T11:43:22.187Z,70.72
2022-10-21T11:44:52.178Z,70.07
2022-10-21T11:46:30.822Z,69.86
2022-10-21T11:47:46.007Z,70.06
2022-10-21T11:49:05.934Z,70.01
2022-10-21T11:50:42.117Z,69.74
2022-10-21T11:52:02.169Z,69.15
2022-10-21T11:53:40.123Z,69.40
2022-10-21T11:55:02.234Z,69.08
2022-10-21T11:56:39.972Z,68.49
2022-10-21T11:57:47.755Z,68.54
2022-10-21T11:59:20.615Z,68.12
2022-10-21T12:00:26.435Z,68.55
2022-10-21T12:01:37.654Z,68.08
2022-10-21T12:02:54.233Z,68.50
2022-10-21T12:04:21.540Z,68.23
2022-10-21T12:05:34.242Z,68.07
2022-10-21T12:06:53.446Z,68.53
2022-10-21T12:08:09.304Z,68.45
2022-10-21T12:09:23.421Z,68.54
2022-10-21T12:10:33.388Z,68.32
2022-10-21T12:11:43.766Z,68.16
2022-10-21T12:12:49.425Z,68.41
2022-10-21T12:14:06.761Z,68.17
2022-10-21T12:15:21.785Z,68.72
2022-10-21T12:16:29.634Z,69.06
2022-10-21T12:17:34.805Z,69.45
2022-10-21T12:18:47.503Z,69.00
2022-10-21T12:19:59.372Z,69.00
2022-10-21T12:21:01.164Z,69.14
2022-10-21T12:22:03.942Z,69.37
2022-10-21T12:23:07.814Z,69.42
2022-10-21T12:24:27.278Z,69.45
2022-10-21T12:25:42.421Z,69.71
2022-10-21T12:26:56.261Z,69.49
2022-10-21T12:28:26.504Z,69.64
2022-10-21T12:29:58.152Z,69.34
2022-10-21T12:31:27.530Z,69.42
2022-10-21T12:33:06.556Z,69.47
2022-10-21T12:34:11.375Z,69.57
2022-10-21T12:35:15.811Z,69.46
2022-10-21T12:36:39.044Z,69.21
2022-10-21T12:37:52.596Z,69.68
2022-10-21T12:38:56.814Z,69.84
2022-10-21T12:40:35.881Z,70.14
2022-10-21T12:41:39.331Z,70.53
2022-10-21T12:42:57.759Z,70.41
2022-10-21T12:44:02.151Z,70.74
2022-10-21T12:45:04.065Z,70.86
2022-10-21T12:46:11.648Z,70.82
2022-10-21T12:47:34.979Z,70.79
2022-10-21T12:48:43.469Z,70.74
2022-10-21T12:49:45.737Z,70.46
2022-10-21T12:50:59.159Z,70.15
2022-10-21T12:52:21.993Z,70.23
2022-10-21T12:53:34.464Z,70.38
2022-10-21T12:54:58.550Z,70.07
2022-10-21T12:56:01.904Z,69.70
2022-10-21T12:57:11.978Z,69.42
2022-10-21T12:58:32.994Z,69.36
2022-10-21T12:59:41.273Z,68.99
2022-10-21T13:00:53.096Z,69.12
2022-10-21T13:02:06.521Z,68.82
2022-10-21T13:03:19.334Z,69.04
2022-10-21T13:04:33.325Z,69.18
2022-10-21T13:05:37.668Z,69.67
2022-10-21T13:06:55.167Z,69.68
2022-10-21T13:08:28.330Z,69.75
2022-10-21T13:09:53.953Z,69.63
2022-10-21T13:11:07.359Z,70.16
2022-10-21T13:12:08.889Z,69.80
2022-10-21T13:13:36.695Z,70.05
2022-10-21T13:15:08.102Z,70.24
2022-10-21T13:16:15.882Z,70.33
2022-10-21T13:17:23.262Z,70.31
2022-10-21T13:19:03.629Z,70.29
2022-10-21T13:20:20.165Z,69.50
2022-10-21T13:21:29.387Z,69.55
2022-10-21T13:22:37.700Z,69.60
2022-10-21T13:23:44.177Z,69.65
2022-10-21T13:24:46.984Z,68.92
2022-10-21T13:26:06.075Z,68.75
2022-10-21T13:28:39.942Z,68.15
2022-10-21T13:29:48.599Z,68.08
2022-10-21T13:30:50.158Z,68.20
2022-10-21T13:32:14.790Z,68.17
2022-10-21T13:33:21.208Z,68.37
2022-10-21T13:34:29.736Z,68.03
2022-10-21T13:35:36.861Z,67.92
2022-10-21T13:36:43.743Z,68.03
2022-10-21T13:38:03.699Z,68.08
2022-10-21T13:39:23.915Z,68.02
2022-10-21T13:40:38.956Z,68.13
2022-10-21T13:41:40.652Z,67.38
2022-10-21T13:42:48.971Z,67.31
2022-10-21T13:43:58.006Z,67.25
2022-10-21T13:45:21.384Z,66.93
2022-10-21T13:46:31.657Z,67.04
2022-10-21T13:47:35.183Z,67.03
2022-10-21T13:48:45.460Z,67.32
2022-10-21T13:49:53.254Z,67.08
2022-10-21T13:50:55.715Z,67.27
2022-10-21T13:51:58.371Z,67.55
2022-10-21T13:53:05.542Z,67.69
2022-10-21T13:54:15.006Z,68.35
2022-10-21T13:55:21.182Z,68.49
2022-10-21T13:56:32.777Z,68.56
2022-10-21T13:57:36.197Z,68.55
2022-10-21T13:58:41.547Z,68.23
2022-10-21T13:59:43.559Z,68.42
2022-10-21T14:00:45.614Z,68.83
2022-10-21T14:01:54.171Z,68.97
2022-10-21T14:03:05.595Z,69.22
2022-10-21T14:04:22.491Z,69.49
2022-10-21T14:05:31.927Z,69.77
2022-10-21T14:06:37.030Z,70.00
2022-10-21T14:07:40.863Z,70.22
2022-10-21T14:08:46.293Z,70.56
2022-10-21T14:09:56.240Z,70.90
2022-10-21T14:11:05.106Z,70.92
2022-10-21T14:12:18.209Z,71.01
2022-10-21T14:13:28.766Z,71.16
2022-10-21T14:14:34.358Z,71.46
2022-10-21T14:15:41.853Z,71.43
2022-10-21T14:16:51.164Z,71.57
2022-10-21T14:17:58.369Z,71.81
2022-10-21T14:19:05.287Z,72.01
2022-10-21T14:20:16.079Z,71.93
2022-10-21T14:21:24.046Z,72.20
2022-10-21T14:22:29.133Z,72.28
2022-10-21T14:23:31.147Z,72.54
2022-10-21T14:24:35.726Z,72.88
2022-10-21T14:25:38.136Z,73.15
2022-10-21T14:26:46.051Z,73.32
2022-10-21T14:27:48.881Z,73.27
2022-10-21T14:28:52.079Z,73.44
2022-10-21T14:29:55.595Z,73.69
2022-10-21T14:30:58.506Z,73.76
2022-10-21T14:32:02.365Z,73.94
2022-10-21T14:33:08.502Z,74.06
2022-10-21T14:34:27.949Z,74.28
2022-10-21T14:35:31.377Z,74.51
2022-10-21T14:36:33.036Z,74.76
2022-10-21T14:37:46.480Z,74.86